Hyundai No.107 — A8CT4 — position and weather

sailwx.info

Track history (hours):
 
Tides and Currents Weather Stations Pressure Air Temp Water Temp Dewpoint Dewpoint Depression Visibility Wind Speed Wind Dir Waves Ship Positions

Hyundai No.107

Last reported at 2016-Jun-04 07:30 UTC. Time now 2016-Jun-30 01:33 UTC.
Position N 29°48' W 121°58'.
Warning: this ship's position is 25 days out of date.

Length 184 m; draft 8.5 m.

Type: Cargo ship. MMSI: 636011980.

Date/timePositionNaut miles runAvg speedWind from/ knotsBaromVisibWave heightAir tempDewpointWater temp
2016-Jun-04 07:30N 29°48' W 121°58'3216.4
2016-Jun-04 05:33N 30°08' W 122°27'1616.1
2016-Jun-04 04:33N 30°18' W 122°42'5116.4
2016-Jun-04 01:29N 30°48' W 123°29'1516.5
2016-Jun-04 00:33N 30°56' W 123°44'1716.7
2016-Jun-03 23:33N 31°06' W 124°00'1616.2
2016-Jun-03 22:33N 31°15' W 124°16'1616.2
2016-Jun-03 21:33N 31°24' W 124°31'1816.0
2016-Jun-03 20:25N 31°34' W 124°49'1416.1
2016-Jun-03 19:33N 31°42' W 125°02'1616.1
2016-Jun-03 18:33N 31°51' W 125°18'1615.8
2016-Jun-03 17:33N 31°60' W 125°33'4815.7
2016-Jun-03 14:30N 32°27' W 126°20'1515.8
2016-Jun-03 13:33N 32°36' W 126°35'3215.8
2016-Jun-03 11:33N 32°54' W 127°06'1615.7
2016-Jun-03 10:32N 33°02' W 127°22'1515.8
2016-Jun-03 09:33N 33°11' W 127°37'1615.7
2016-Jun-03 08:33N 33°20' W 127°52'1615.4
2016-Jun-03 07:33N 33°29' W 128°07'2015.4
2016-Jun-03 06:13N 33°41' W 128°28'1015.4
2016-Jun-03 05:33N 33°46' W 128°38'1515.5
2016-Jun-03 04:33N 33°55' W 128°53'1515.3
2016-Jun-03 03:33N 34°04' W 129°08'1515.5
2016-Jun-03 02:33N 34°13' W 129°24'1515.4
2016-Jun-03 01:33N 34°21' W 129°39'2215.4
2016-Jun-03 00:07N 34°34' W 130°02'915.4
2016-Jun-02 23:33N 34°38' W 130°11'1515.3
2016-Jun-02 22:33N 34°46' W 130°27'1515.4
2016-Jun-02 21:33N 34°53' W 130°43'1715.3
2016-Jun-02 20:28N 35°01' W 131°01'13815.5
2016-Jun-02 11:33N 36°09' W 133°28'  
Track history (hours):
 
Tides and Currents Weather Stations Pressure Air Temp Water Temp Dewpoint Dewpoint Depression Visibility Wind Speed Wind Dir Waves Ship Positions

Hyundai No.107

Last reported at 2016-Jun-04 07:30 UTC. Time now 2016-Jun-30 01:33 UTC.
Position N 29°48' W 121°58'.
Warning: this ship's position is 25 days out of date.

Length 184 m; draft 8.5 m.

Type: Cargo ship. MMSI: 636011980.

Date/timePositionNaut miles runAvg speedWind from/ knotsBaromVisibWave heightAir tempDewpointWater temp
2016-Jun-04 07:30N 29°48' W 121°58'3216.4
2016-Jun-04 05:33N 30°08' W 122°27'1616.1
2016-Jun-04 04:33N 30°18' W 122°42'5116.4
2016-Jun-04 01:29N 30°48' W 123°29'1516.5
2016-Jun-04 00:33N 30°56' W 123°44'1716.7
2016-Jun-03 23:33N 31°06' W 124°00'1616.2
2016-Jun-03 22:33N 31°15' W 124°16'1616.2
2016-Jun-03 21:33N 31°24' W 124°31'1816.0
2016-Jun-03 20:25N 31°34' W 124°49'1416.1
2016-Jun-03 19:33N 31°42' W 125°02'1616.1
2016-Jun-03 18:33N 31°51' W 125°18'1615.8
2016-Jun-03 17:33N 31°60' W 125°33'4815.7
2016-Jun-03 14:30N 32°27' W 126°20'1515.8
2016-Jun-03 13:33N 32°36' W 126°35'3215.8
2016-Jun-03 11:33N 32°54' W 127°06'1615.7
2016-Jun-03 10:32N 33°02' W 127°22'1515.8
2016-Jun-03 09:33N 33°11' W 127°37'1615.7
2016-Jun-03 08:33N 33°20' W 127°52'1615.4
2016-Jun-03 07:33N 33°29' W 128°07'2015.4
2016-Jun-03 06:13N 33°41' W 128°28'1015.4
2016-Jun-03 05:33N 33°46' W 128°38'1515.5
2016-Jun-03 04:33N 33°55' W 128°53'1515.3
2016-Jun-03 03:33N 34°04' W 129°08'1515.5
2016-Jun-03 02:33N 34°13' W 129°24'1515.4
2016-Jun-03 01:33N 34°21' W 129°39'2215.4
2016-Jun-03 00:07N 34°34' W 130°02'915.4
2016-Jun-02 23:33N 34°38' W 130°11'1515.3
2016-Jun-02 22:33N 34°46' W 130°27'1515.4
2016-Jun-02 21:33N 34°53' W 130°43'1715.3
2016-Jun-02 20:28N 35°01' W 131°01'13815.5
2016-Jun-02 11:33N 36°09' W 133°28'  

Dump ship's entire track history